Time;durP1;ratioP1;P1;durP2;ratioP2;P2;SDS_P1;SDS_P2;PMS_P1;PMS_P2;Temp;Humidity;BMP_temperature;BMP_pressure;BME280_temperature;BME280_humidity;BME280_pressure;Samples;Min_cycle;Max_cycle;Signal;HPM_P1;HPM_P2
2022/11/08 00:18:00;;;;;;;7.82;2.70;;;11.50;99.90;;;;;;7344861;32;20698;-59
2022/11/08 00:22:01;;;;;;;11.25;1.92;;;11.80;99.90;;;;;;7351484;32;20117;-62
2022/11/08 00:26:03;;;;;;;10.00;2.10;;;11.80;99.90;;;;;;7343108;32;20156;-59
2022/11/08 00:30:05;;;;;;;7.95;2.00;;;11.90;99.90;;;;;;7348231;32;20649;-59
2022/11/08 00:34:07;;;;;;;9.05;2.20;;;11.90;99.90;;;;;;7347386;32;20092;-59
2022/11/08 00:38:09;;;;;;;10.45;2.30;;;12.10;99.90;;;;;;7346776;32;20190;-60
2022/11/08 00:42:10;;;;;;;5.95;1.70;;;12.20;99.90;;;;;;7346746;32;20284;-58
2022/11/08 00:46:12;;;;;;;8.50;1.95;;;12.20;99.90;;;;;;7349581;32;20516;-60
2022/11/08 00:50:14;;;;;;;6.65;1.80;;;12.10;99.90;;;;;;7348766;32;20103;-59
2022/11/08 00:54:18;;;;;;;5.90;1.70;;;12.30;99.90;;;;;;7343203;32;20139;-59
2022/11/08 00:58:20;;;;;;;6.78;1.75;;;12.20;99.90;;;;;;7351050;32;20566;-58
2022/11/08 01:02:27;;;;;;;6.72;1.60;;;12.20;99.90;;;;;;7344965;32;20111;-58
2022/11/08 01:06:30;;;;;;;8.75;1.87;;;12.30;99.90;;;;;;7347441;32;20091;-58
2022/11/08 01:10:31;;;;;;;8.15;1.62;;;12.20;99.90;;;;;;7351429;32;20099;-57
2022/11/08 01:14:33;;;;;;;11.65;1.90;;;12.30;99.90;;;;;;7351054;32;21803;-58
2022/11/08 01:18:35;;;;;;;8.65;1.80;;;12.30;99.90;;;;;;7350682;32;20116;-58
2022/11/08 01:22:37;;;;;;;5.12;1.50;;;12.30;99.90;;;;;;7347320;32;20107;-58
2022/11/08 01:26:38;;;;;;;5.47;1.58;;;12.20;99.90;;;;;;7350432;32;20099;-59
2022/11/08 01:30:42;;;;;;;6.28;1.55;;;12.30;99.90;;;;;;7344722;32;20182;-59
2022/11/08 01:34:43;;;;;;;6.35;1.75;;;12.30;99.90;;;;;;7343313;32;20096;-59
2022/11/08 01:38:45;;;;;;;7.22;1.83;;;12.30;99.90;;;;;;7350579;32;20515;-59
2022/11/08 01:42:47;;;;;;;6.65;1.58;;;12.20;99.90;;;;;;7351930;32;20181;-58
2022/11/08 01:46:48;;;;;;;5.45;1.60;;;12.20;99.90;;;;;;7358263;32;20130;-59
2022/11/08 01:50:51;;;;;;;7.28;1.85;;;12.10;99.90;;;;;;7350653;32;20864;-60
2022/11/08 01:55:13;;;;;;;6.18;1.90;;;12.00;99.90;;;;;;7345679;32;20202;-58
2022/11/08 01:59:17;;;;;;;8.57;1.85;;;12.00;99.90;;;;;;7351745;32;20153;-59
2022/11/08 02:03:20;;;;;;;5.62;1.90;;;12.10;99.90;;;;;;7346371;32;20122;-59
2022/11/08 02:07:23;;;;;;;8.93;1.65;;;12.20;99.90;;;;;;7356683;32;20107;-59
2022/11/08 02:11:25;;;;;;;6.37;1.58;;;12.10;99.90;;;;;;7350627;32;20122;-59
2022/11/08 02:15:27;;;;;;;9.38;1.77;;;12.10;99.90;;;;;;7351560;32;20211;-59
2022/11/08 02:19:45;;;;;;;6.18;2.20;;;12.10;99.90;;;;;;7349726;32;20217;-59
2022/11/08 02:23:54;;;;;;;6.10;1.58;;;12.00;99.90;;;;;;7352022;32;20508;-59
2022/11/08 02:27:56;;;;;;;7.55;1.50;;;11.90;99.90;;;;;;7344517;32;20130;-58
2022/11/08 02:31:59;;;;;;;4.95;1.65;;;11.90;99.90;;;;;;7352920;32;20095;-59
2022/11/08 02:36:01;;;;;;;8.02;1.90;;;11.90;99.90;;;;;;7348524;32;20520;-58
2022/11/08 02:40:04;;;;;;;10.13;1.98;;;11.80;99.90;;;;;;7348326;32;20108;-59
2022/11/08 02:44:05;;;;;;;7.97;2.03;;;11.80;99.90;;;;;;7351677;32;20107;-58
2022/11/08 02:48:07;;;;;;;8.07;1.62;;;11.80;99.90;;;;;;7350490;32;20095;-59
2022/11/08 02:52:09;;;;;;;5.37;1.73;;;11.90;99.90;;;;;;7352304;32;20516;-59
2022/11/08 02:56:11;;;;;;;5.95;1.65;;;11.80;99.90;;;;;;7350373;32;20277;-60
2022/11/08 03:00:13;;;;;;;6.05;2.10;;;11.60;99.90;;;;;;7345315;32;20210;-58
2022/11/08 03:04:15;;;;;;;6.18;1.92;;;11.60;99.90;;;;;;7347585;32;20598;-59
2022/11/08 03:08:17;;;;;;;6.55;2.05;;;11.70;99.90;;;;;;7353178;32;20573;-59
2022/11/08 03:12:19;;;;;;;7.22;2.15;;;11.70;99.90;;;;;;7343620;32;20103;-59
2022/11/08 03:16:20;;;;;;;7.47;2.30;;;11.60;99.90;;;;;;7352868;32;20125;-59
2022/11/08 03:20:22;;;;;;;7.15;2.25;;;11.70;99.90;;;;;;7344717;32;20095;-58
2022/11/08 03:24:27;;;;;;;7.72;2.25;;;11.60;99.90;;;;;;7351602;32;20091;-59
2022/11/08 03:28:30;;;;;;;5.85;1.80;;;11.50;99.90;;;;;;7345997;32;20100;-60
2022/11/08 03:32:31;;;;;;;4.85;1.75;;;11.50;99.90;;;;;;7348390;32;20194;-59
2022/11/08 03:36:33;;;;;;;5.10;1.62;;;11.50;99.90;;;;;;7354880;32;20197;-60
2022/11/08 03:40:35;;;;;;;7.18;1.58;;;11.50;99.90;;;;;;7353978;32;20198;-59
2022/11/08 03:44:36;;;;;;;5.57;1.52;;;11.40;99.90;;;;;;7352473;32;20095;-59
2022/11/08 03:48:38;;;;;;;6.07;1.50;;;11.30;99.90;;;;;;7348391;32;20202;-59
2022/11/08 03:52:48;;;;;;;6.35;1.60;;;11.30;99.90;;;;;;7347981;32;20141;-59
2022/11/08 03:56:50;;;;;;;5.35;1.12;;;11.30;99.90;;;;;;7353277;32;20222;-59
2022/11/08 04:00:52;;;;;;;7.80;1.58;;;11.40;99.90;;;;;;7342962;32;20570;-59
2022/11/08 04:04:53;;;;;;;4.53;1.30;;;11.40;99.90;;;;;;7345150;32;20133;-58
2022/11/08 04:08:55;;;;;;;5.93;1.30;;;11.30;99.90;;;;;;7347099;32;20741;-58
2022/11/08 04:21:17;;;;;;;4.82;1.25;;;11.20;99.90;;;;;;7352453;32;20198;-59
2022/11/08 04:21:49;;;;;;;7.00;1.60;;;11.30;99.90;;;;;;7351448;32;20129;-59
2022/11/08 04:25:56;;;;;;;5.37;1.35;;;11.30;99.90;;;;;;7350542;32;20542;-59
2022/11/08 04:29:58;;;;;;;7.15;1.40;;;11.20;99.90;;;;;;7348271;32;20107;-59
2022/11/08 04:34:00;;;;;;;10.27;1.67;;;11.20;99.90;;;;;;7346153;32;20107;-60
2022/11/08 04:38:02;;;;;;;4.65;1.35;;;11.20;99.90;;;;;;7343453;32;20212;-59
2022/11/08 04:42:03;;;;;;;7.30;1.70;;;11.30;99.90;;;;;;7346042;32;20103;-58
2022/11/08 04:46:20;;;;;;;3.47;1.30;;;11.20;99.90;;;;;;7352771;32;20791;-60
2022/11/08 04:50:22;;;;;;;3.57;1.00;;;11.20;99.90;;;;;;7350765;32;20579;-58
2022/11/08 04:54:23;;;;;;;6.68;1.30;;;11.20;99.90;;;;;;7350863;32;20539;-59
2022/11/08 04:58:25;;;;;;;5.70;1.42;;;11.20;99.90;;;;;;7347241;32;20222;-60
2022/11/08 05:02:27;;;;;;;3.60;1.30;;;11.20;99.90;;;;;;7345501;32;20520;-59
2022/11/08 05:06:30;;;;;;;7.20;1.40;;;11.20;99.90;;;;;;7352569;32;21160;-58
2022/11/08 05:10:31;;;;;;;4.22;1.20;;;11.20;99.90;;;;;;7348009;32;20186;-59
2022/11/08 05:14:33;;;;;;;5.07;1.48;;;11.20;99.90;;;;;;7343952;32;20884;-60
2022/11/08 05:18:35;;;;;;;5.90;1.62;;;11.20;99.90;;;;;;7346205;32;20126;-58
2022/11/08 05:26:57;;;;;;;10.75;2.05;;;11.20;99.90;;;;;;7348668;32;20099;-59
2022/11/08 05:30:59;;;;;;;4.95;1.87;;;11.10;99.90;;;;;;7346974;32;20171;-59
2022/11/08 05:35:00;;;;;;;5.70;1.87;;;11.00;99.90;;;;;;7342706;32;20104;-59
2022/11/08 05:39:02;;;;;;;9.13;2.17;;;11.00;99.90;;;;;;7342406;32;20797;-61
2022/11/08 05:43:04;;;;;;;5.70;1.70;;;11.00;99.90;;;;;;7345747;32;20128;-59
2022/11/08 05:47:05;;;;;;;5.78;1.98;;;11.00;99.90;;;;;;7345608;32;20344;-59
2022/11/08 05:51:07;;;;;;;5.72;1.83;;;10.90;99.90;;;;;;7347069;32;20095;-58
2022/11/08 05:55:09;;;;;;;6.78;1.58;;;11.00;99.90;;;;;;7348965;32;20100;-59
2022/11/08 05:59:11;;;;;;;5.47;2.00;;;11.10;99.90;;;;;;7346955;32;20825;-59
2022/11/08 06:03:13;;;;;;;4.28;1.60;;;11.00;99.90;;;;;;7347034;32;20511;-58
2022/11/08 06:07:14;;;;;;;6.00;1.70;;;11.10;99.90;;;;;;7347464;32;20103;-59
2022/11/08 06:11:22;;;;;;;4.47;1.55;;;11.10;99.90;;;;;;7345410;32;20122;-59
2022/11/08 06:15:24;;;;;;;2.45;1.12;;;11.00;99.90;;;;;;7335016;32;20197;-62
2022/11/08 06:19:26;;;;;;;4.53;1.27;;;11.20;99.90;;;;;;7341869;32;20209;-60
2022/11/08 06:23:28;;;;;;;4.30;1.17;;;11.20;99.90;;;;;;7344710;32;20099;-59
2022/11/08 06:27:30;;;;;;;5.03;1.30;;;11.10;99.90;;;;;;7345852;32;20100;-62
2022/11/08 06:31:32;;;;;;;2.97;1.60;;;11.20;99.90;;;;;;7348397;32;20610;-60
2022/11/08 06:35:35;;;;;;;3.12;1.08;;;11.30;99.90;;;;;;7345906;32;20209;-60
2022/11/08 06:39:36;;;;;;;3.62;1.20;;;11.30;99.90;;;;;;7354386;32;20632;-61
2022/11/08 06:43:38;;;;;;;3.75;1.27;;;11.40;99.90;;;;;;7349943;32;20527;-63
2022/11/08 06:47:39;;;;;;;3.80;1.50;;;11.40;99.90;;;;;;7349973;32;20164;-63
2022/11/08 06:51:41;;;;;;;2.95;1.10;;;11.40;99.90;;;;;;7351517;32;20143;-63
2022/11/08 06:55:43;;;;;;;5.05;1.40;;;11.50;99.90;;;;;;7346061;32;20104;-62
2022/11/08 06:59:44;;;;;;;5.28;1.23;;;11.50;99.90;;;;;;7344547;32;20099;-62
2022/11/08 07:03:46;;;;;;;5.50;1.15;;;11.50;99.90;;;;;;7347327;32;20110;-62
2022/11/08 07:07:50;;;;;;;4.10;1.12;;;11.60;99.90;;;;;;7345842;32;20130;-62
2022/11/08 07:11:52;;;;;;;9.48;2.25;;;11.50;99.90;;;;;;7354251;32;20107;-63
2022/11/08 07:15:57;;;;;;;4.45;0.98;;;11.50;99.90;;;;;;7350159;32;20107;-61
2022/11/08 07:19:59;;;;;;;3.97;1.15;;;11.70;99.90;;;;;;7349875;32;20212;-63
2022/11/08 07:24:00;;;;;;;4.55;1.30;;;11.70;99.90;;;;;;7344923;32;20115;-63
2022/11/08 07:28:04;;;;;;;2.67;1.00;;;11.80;99.90;;;;;;7348369;32;20195;-63
2022/11/08 07:32:06;;;;;;;3.80;0.90;;;11.90;99.90;;;;;;7346978;32;20108;-63
2022/11/08 07:36:08;;;;;;;3.12;1.23;;;11.90;99.90;;;;;;7352397;32;20178;-63
2022/11/08 07:40:10;;;;;;;2.08;0.90;;;11.90;99.90;;;;;;7350197;32;20110;-63
2022/11/08 07:44:12;;;;;;;3.78;1.08;;;11.90;99.90;;;;;;7348163;32;20323;-63
2022/11/08 07:48:14;;;;;;;2.70;0.90;;;11.90;99.90;;;;;;7352048;32;20118;-61
2022/11/08 07:52:15;;;;;;;6.72;1.10;;;11.90;99.90;;;;;;7349121;32;20114;-62
2022/11/08 07:56:17;;;;;;;2.90;1.05;;;11.90;99.90;;;;;;7347507;32;20129;-63
2022/11/08 08:00:19;;;;;;;3.28;1.00;;;11.90;99.90;;;;;;7340973;32;20122;-63
2022/11/08 08:04:20;;;;;;;3.03;0.90;;;12.00;99.90;;;;;;7351290;32;20129;-63
2022/11/08 08:08:22;;;;;;;2.92;0.90;;;12.10;99.90;;;;;;7343465;32;20187;-64
2022/11/08 08:12:24;;;;;;;5.35;0.90;;;12.20;99.90;;;;;;7347448;32;20147;-65
2022/11/08 08:16:25;;;;;;;2.97;1.10;;;12.20;99.90;;;;;;7352658;32;20150;-63
2022/11/08 08:20:28;;;;;;;2.90;0.93;;;12.40;99.90;;;;;;7351159;32;20100;-62
2022/11/08 08:24:29;;;;;;;2.53;0.90;;;12.50;99.90;;;;;;7343734;32;20141;-61
2022/11/08 08:28:31;;;;;;;5.12;1.17;;;12.50;99.90;;;;;;7345974;32;21104;-64
2022/11/08 08:32:33;;;;;;;2.50;0.85;;;12.50;99.90;;;;;;7342021;32;20225;-64
2022/11/08 08:36:35;;;;;;;4.87;1.12;;;12.60;99.90;;;;;;7348160;32;20123;-63
2022/11/08 08:40:36;;;;;;;5.00;1.40;;;12.70;99.90;;;;;;7341821;32;20122;-63
2022/11/08 08:44:38;;;;;;;5.25;1.20;;;12.80;99.90;;;;;;7341183;32;20121;-63
2022/11/08 08:48:40;;;;;;;4.07;1.00;;;12.80;99.90;;;;;;7344865;32;20091;-63
2022/11/08 08:52:41;;;;;;;4.12;1.25;;;12.80;99.90;;;;;;7346445;32;20103;-62
2022/11/08 08:56:43;;;;;;;2.00;0.90;;;12.90;99.90;;;;;;7347969;32;20104;-62
2022/11/08 09:00:45;;;;;;;1.37;0.90;;;12.90;99.90;;;;;;7342990;32;20107;-60
2022/11/08 09:05:07;;;;;;;2.67;0.90;;;13.00;99.90;;;;;;7346566;32;20108;-62
2022/11/08 09:09:09;;;;;;;4.37;1.00;;;13.10;99.90;;;;;;7352999;32;20118;-62
2022/11/08 09:13:11;;;;;;;1.77;0.90;;;13.10;99.90;;;;;;7347220;32;20163;-63
2022/11/08 09:17:12;;;;;;;2.80;1.30;;;13.30;99.90;;;;;;7347256;32;20832;-63
2022/11/08 09:21:14;;;;;;;1.85;0.75;;;13.30;99.90;;;;;;7346577;32;20103;-65
2022/11/08 09:25:17;;;;;;;4.22;0.90;;;13.50;99.90;;;;;;7348026;32;20087;-65
2022/11/08 09:29:18;;;;;;;2.58;1.00;;;13.60;99.90;;;;;;7345473;32;20132;-65
2022/11/08 09:33:20;;;;;;;3.20;1.08;;;13.60;99.90;;;;;;7338328;32;20136;-63
2022/11/08 09:37:23;;;;;;;5.18;1.10;;;13.60;99.90;;;;;;7341384;32;20218;-66
2022/11/08 09:41:41;;;;;;;3.42;1.00;;;13.60;99.90;;;;;;7346429;32;20467;-64
2022/11/08 09:45:46;;;;;;;3.22;0.90;;;13.60;99.90;;;;;;7345036;32;20123;-65
2022/11/08 09:49:54;;;;;;;2.28;1.00;;;13.60;99.90;;;;;;7336407;32;20099;-58
2022/11/08 09:54:02;;;;;;;4.68;1.05;;;13.60;99.90;;;;;;7351254;32;20100;-64
2022/11/08 09:58:27;;;;;;;3.90;0.90;;;13.70;99.90;;;;;;7341064;32;20103;-61
2022/11/08 10:02:30;;;;;;;4.30;1.10;;;13.70;99.90;;;;;;7342245;32;20129;-62
2022/11/08 10:06:45;;;;;;;4.57;1.10;;;13.70;99.90;;;;;;7345250;32;20220;-63
2022/11/08 10:10:56;;;;;;;2.78;1.02;;;13.80;99.90;;;;;;7347509;32;20303;-62
2022/11/08 10:15:31;;;;;;;3.22;1.10;;;13.80;99.90;;;;;;7349740;32;20145;-62
2022/11/08 10:19:36;;;;;;;3.10;1.15;;;13.80;99.90;;;;;;7346388;32;20224;-63
2022/11/08 10:23:51;;;;;;;2.08;1.02;;;13.80;99.90;;;;;;7352590;32;20092;-62
2022/11/08 10:27:58;;;;;;;7.07;1.20;;;13.90;99.90;;;;;;7351231;32;20217;-63
2022/11/08 10:32:12;;;;;;;2.83;1.00;;;13.90;99.90;;;;;;7350424;32;20134;-63
2022/11/08 10:36:39;;;;;;;4.03;1.10;;;13.90;99.90;;;;;;7344275;32;20194;-61
2022/11/08 10:40:44;;;;;;;4.12;0.95;;;13.90;99.90;;;;;;7342046;32;20103;-61
2022/11/08 10:44:45;;;;;;;4.80;1.42;;;13.80;99.90;;;;;;7348701;32;20125;-61
2022/11/08 10:48:47;;;;;;;3.05;1.10;;;13.90;99.90;;;;;;7348191;32;20244;-61
2022/11/08 10:53:03;;;;;;;3.95;1.08;;;14.00;99.90;;;;;;7349906;32;20444;-61
2022/11/08 10:57:05;;;;;;;3.92;1.08;;;13.90;99.90;;;;;;7344402;32;20099;-61
2022/11/08 11:01:18;;;;;;;2.50;1.10;;;14.00;99.90;;;;;;7346392;32;20103;-62
2022/11/08 11:05:23;;;;;;;2.90;1.00;;;14.00;99.90;;;;;;7346645;32;20133;-63
2022/11/08 11:09:26;;;;;;;2.30;1.10;;;14.00;99.90;;;;;;7348293;32;20307;-63
2022/11/08 11:13:28;;;;;;;6.97;1.02;;;14.20;99.90;;;;;;7345699;32;20091;-64
2022/11/08 11:17:33;;;;;;;1.87;1.17;;;14.20;99.90;;;;;;7345474;32;20129;-63
2022/11/08 11:21:42;;;;;;;4.10;1.10;;;14.20;99.90;;;;;;7337031;32;20151;-64
2022/11/08 11:25:50;;;;;;;4.90;1.23;;;14.40;99.90;;;;;;7346309;32;20186;-63
2022/11/08 11:30:14;;;;;;;2.60;1.12;;;14.50;99.90;;;;;;7344979;32;20178;-64
2022/11/08 11:34:16;;;;;;;4.00;1.17;;;14.70;99.90;;;;;;7356511;32;20140;-63
2022/11/08 11:38:27;;;;;;;4.28;0.95;;;14.70;99.90;;;;;;7344666;32;20211;-64
2022/11/08 11:42:52;;;;;;;3.92;1.00;;;14.70;99.90;;;;;;7340091;32;20611;-61
2022/11/08 11:47:01;;;;;;;4.30;1.15;;;14.80;99.90;;;;;;7317867;32;20102;-60
2022/11/08 11:51:03;;;;;;;4.45;1.20;;;14.90;99.90;;;;;;7348343;32;20186;-61
2022/11/08 11:55:05;;;;;;;3.55;1.37;;;15.00;99.90;;;;;;7349615;32;20198;-63
2022/11/08 11:59:52;;;;;;;5.12;1.10;;;15.00;99.90;;;;;;7350666;32;20241;-61
2022/11/08 12:04:31;;;;;;;4.28;0.85;;;15.10;99.90;;;;;;7345223;32;20206;-61
2022/11/08 12:08:54;;;;;;;4.55;1.20;;;15.10;99.90;;;;;;7340109;32;20216;-63
2022/11/08 12:13:11;;;;;;;4.80;1.12;;;15.20;99.90;;;;;;7343867;32;20104;-63
2022/11/08 12:17:29;;;;;;;4.12;1.35;;;15.30;99.90;;;;;;7347036;32;20194;-63
2022/11/08 12:21:47;;;;;;;3.17;1.10;;;15.40;99.90;;;;;;7340322;32;20264;-62
2022/11/08 12:25:55;;;;;;;4.12;1.48;;;15.30;99.90;;;;;;7344252;32;20103;-63
2022/11/08 12:29:56;;;;;;;3.00;1.20;;;15.30;99.90;;;;;;7349660;32;20099;-63
2022/11/08 12:34:41;;;;;;;3.15;1.12;;;15.40;99.90;;;;;;7339135;32;20126;-61
2022/11/08 12:38:55;;;;;;;2.62;1.25;;;15.40;99.90;;;;;;7338289;32;20603;-63
2022/11/08 12:43:02;;;;;;;3.97;1.10;;;15.40;99.90;;;;;;7347301;32;20125;-62
2022/11/08 12:47:42;;;;;;;3.78;1.15;;;15.40;99.90;;;;;;7349627;32;20433;-62
2022/11/08 12:52:28;;;;;;;3.65;1.27;;;15.50;99.90;;;;;;7243783;32;20163;-62
2022/11/08 12:56:47;;;;;;;7.03;1.35;;;15.60;99.90;;;;;;7312945;32;20099;-60
2022/11/08 13:00:51;;;;;;;3.62;1.48;;;15.70;99.90;;;;;;7341189;32;20103;-60
2022/11/08 13:05:04;;;;;;;4.32;1.17;;;15.80;99.90;;;;;;7344396;32;20204;-61
2022/11/08 13:09:20;;;;;;;4.90;1.40;;;15.80;99.90;;;;;;7342375;32;20104;-62
2022/11/08 13:13:27;;;;;;;4.12;1.00;;;15.70;99.90;;;;;;7346685;32;20974;-62
2022/11/08 13:17:29;;;;;;;3.00;1.35;;;15.60;99.90;;;;;;7348906;32;20128;-63
2022/11/08 13:21:37;;;;;;;5.25;1.40;;;15.40;99.90;;;;;;7342051;32;20087;-63
2022/11/08 13:25:40;;;;;;;2.80;1.17;;;15.40;99.90;;;;;;7340136;32;20126;-58
2022/11/08 13:29:42;;;;;;;4.87;1.40;;;15.40;99.90;;;;;;7350063;32;20103;-58
2022/11/08 13:34:00;;;;;;;4.50;1.48;;;15.40;99.90;;;;;;7342322;32;20100;-57
2022/11/08 13:38:10;;;;;;;;;;;15.40;99.90;;;;;;7345894;32;20172;-59
2022/11/08 13:42:15;;;;;;;7.93;1.52;;;15.50;99.90;;;;;;7347969;32;20025;-58
2022/11/08 13:46:21;;;;;;;4.12;1.20;;;15.60;99.90;;;;;;7349506;32;20106;-57
2022/11/08 13:50:32;;;;;;;5.07;1.70;;;15.60;99.90;;;;;;7349007;32;20092;-57
2022/11/08 13:54:48;;;;;;;4.95;1.58;;;15.70;99.90;;;;;;7351460;32;20650;-60
2022/11/08 13:58:49;;;;;;;5.00;1.30;;;15.60;99.90;;;;;;7356835;32;20125;-60
2022/11/08 14:02:51;;;;;;;5.72;1.45;;;15.70;99.90;;;;;;7351802;32;20117;-59
2022/11/08 14:07:10;;;;;;;3.55;1.45;;;15.60;99.90;;;;;;7352860;32;20657;-62
2022/11/08 14:11:45;;;;;;;5.85;1.55;;;15.60;99.90;;;;;;7347761;32;20107;-63
2022/11/08 14:15:55;;;;;;;5.32;1.50;;;15.60;99.90;;;;;;7344648;32;20660;-61
2022/11/08 14:20:15;;;;;;;5.45;1.58;;;15.60;99.90;;;;;;7346282;32;20206;-62
2022/11/08 14:24:21;;;;;;;4.55;1.40;;;15.50;99.90;;;;;;7349181;32;20741;-63
2022/11/08 14:28:27;;;;;;;4.03;1.10;;;15.50;99.90;;;;;;7344528;32;20241;-63
2022/11/08 14:32:29;;;;;;;3.80;1.50;;;15.40;99.90;;;;;;7351883;32;20123;-63
2022/11/08 14:36:31;;;;;;;4.20;1.60;;;15.30;99.90;;;;;;7351923;32;20187;-62
2022/11/08 14:40:34;;;;;;;3.85;1.75;;;15.30;99.90;;;;;;7346563;32;20102;-61
2022/11/08 14:44:35;;;;;;;3.85;1.42;;;15.20;99.90;;;;;;7349521;32;20901;-62
2022/11/08 14:48:53;;;;;;;3.85;1.77;;;15.10;99.90;;;;;;7351010;32;20103;-62
2022/11/08 14:52:55;;;;;;;3.83;1.20;;;14.90;99.90;;;;;;7350247;32;20122;-62
2022/11/08 14:56:57;;;;;;;6.95;1.67;;;14.80;99.90;;;;;;7353091;32;20099;-61
2022/11/08 15:01:00;;;;;;;4.55;1.60;;;14.80;99.90;;;;;;7345548;32;20107;-61
2022/11/08 15:05:02;;;;;;;4.68;1.50;;;14.70;99.90;;;;;;7348437;32;20237;-62
2022/11/08 15:09:05;;;;;;;3.62;1.40;;;14.60;99.90;;;;;;7353614;32;20221;-63
2022/11/08 15:13:09;;;;;;;4.87;1.42;;;14.70;99.90;;;;;;7356541;32;20243;-62
2022/11/08 15:17:28;;;;;;;4.25;1.50;;;14.70;99.90;;;;;;7350567;32;20134;-62
2022/11/08 15:21:30;;;;;;;4.37;1.45;;;14.70;99.90;;;;;;7346678;32;20535;-61
2022/11/08 15:25:34;;;;;;;4.07;1.42;;;14.60;99.90;;;;;;7353366;32;20144;-60
2022/11/08 15:30:02;;;;;;;5.60;1.30;;;14.60;99.90;;;;;;7352820;32;20103;-61
2022/11/08 15:34:04;;;;;;;4.00;1.30;;;14.60;99.90;;;;;;7349926;32;20130;-60
2022/11/08 15:38:34;;;;;;;3.50;1.40;;;14.60;99.90;;;;;;7350157;32;20528;-60
2022/11/08 15:42:43;;;;;;;2.03;1.20;;;14.50;99.90;;;;;;7353726;32;20125;-60
2022/11/08 15:46:45;;;;;;;2.83;1.20;;;14.50;99.90;;;;;;7350288;32;20567;-60
2022/11/08 15:50:48;;;;;;;3.08;1.58;;;14.60;99.90;;;;;;7351992;32;20104;-60
2022/11/08 15:54:49;;;;;;;2.35;1.10;;;14.60;99.90;;;;;;7343036;32;20236;-60
2022/11/08 15:58:51;;;;;;;4.10;1.25;;;14.50;99.90;;;;;;7347574;32;20218;-62
2022/11/08 16:02:53;;;;;;;3.95;1.62;;;14.50;99.90;;;;;;7346227;32;20186;-61
2022/11/08 16:06:56;;;;;;;4.22;1.35;;;14.50;99.90;;;;;;7347855;32;20107;-59
2022/11/08 16:10:59;;;;;;;2.97;1.20;;;14.60;99.90;;;;;;7347584;32;20313;-58
2022/11/08 16:15:00;;;;;;;2.53;1.25;;;14.70;99.90;;;;;;7350881;32;20551;-58
2022/11/08 16:19:02;;;;;;;3.95;1.33;;;14.70;99.90;;;;;;7348010;32;20130;-59
2022/11/08 16:23:07;;;;;;;3.00;1.23;;;14.70;99.90;;;;;;7351065;32;20549;-58
2022/11/08 16:27:09;;;;;;;2.78;1.48;;;14.80;99.90;;;;;;7351696;32;20095;-58
2022/11/08 16:31:13;;;;;;;5.53;1.30;;;14.90;99.90;;;;;;7353852;32;20121;-59
2022/11/08 16:35:15;;;;;;;6.20;1.75;;;14.90;99.90;;;;;;7349388;32;20222;-60
2022/11/08 16:39:20;;;;;;;4.47;1.37;;;14.90;99.90;;;;;;7339243;32;20570;-60
2022/11/08 16:43:21;;;;;;;3.92;1.40;;;15.00;99.90;;;;;;7353505;32;20103;-61
2022/11/08 16:47:24;;;;;;;4.95;1.10;;;15.10;99.90;;;;;;7350709;32;20849;-62
2022/11/08 16:51:26;;;;;;;5.72;1.10;;;15.10;99.90;;;;;;7350332;32;20119;-61
2022/11/08 16:55:28;;;;;;;7.78;1.42;;;15.20;99.90;;;;;;7347554;32;20197;-61
2022/11/08 16:59:30;;;;;;;5.30;1.55;;;15.20;99.90;;;;;;7351649;32;20107;-62
2022/11/08 17:03:32;;;;;;;2.35;1.20;;;15.30;99.90;;;;;;7348432;32;20218;-61
2022/11/08 17:07:34;;;;;;;2.10;1.10;;;15.20;99.90;;;;;;7350558;32;20730;-61
2022/11/08 17:11:39;;;;;;;4.95;1.48;;;15.30;99.90;;;;;;7349998;32;20795;-61
2022/11/08 17:15:41;;;;;;;4.55;1.27;;;15.40;99.90;;;;;;7344122;32;20726;-61
2022/11/08 17:19:43;;;;;;;5.43;1.20;;;15.40;99.90;;;;;;7353894;32;20217;-61
2022/11/08 17:23:45;;;;;;;3.05;1.20;;;15.40;99.90;;;;;;7348572;32;20104;-62
2022/11/08 17:27:49;;;;;;;7.45;1.50;;;15.20;99.90;;;;;;7347130;32;20978;-60
2022/11/08 17:31:50;;;;;;;4.10;1.40;;;14.90;99.90;;;;;;7347692;32;20214;-61
2022/11/08 17:35:52;;;;;;;3.90;1.60;;;14.60;99.90;;;;;;7345072;32;20130;-61
2022/11/08 17:39:56;;;;;;;3.17;1.45;;;14.50;99.90;;;;;;7348569;32;20253;-63
2022/11/08 17:43:58;;;;;;;1.65;1.05;;;14.40;99.90;;;;;;7339150;32;20118;-60
2022/11/08 17:48:00;;;;;;;3.62;1.17;;;14.40;99.90;;;;;;7347560;32;20116;-59
2022/11/08 17:52:02;;;;;;;4.12;1.50;;;14.40;99.90;;;;;;7345201;32;20146;-60
2022/11/08 17:56:05;;;;;;;4.05;1.15;;;14.50;99.90;;;;;;7349399;32;20190;-59
2022/11/08 18:00:07;;;;;;;7.20;1.75;;;14.60;99.90;;;;;;7348509;32;20261;-59
2022/11/08 18:04:13;;;;;;;4.43;1.30;;;14.60;99.90;;;;;;7347673;32;20217;-60
2022/11/08 18:08:14;;;;;;;13.85;7.53;;;14.60;99.90;;;;;;7339107;32;20209;-59
2022/11/08 18:12:16;;;;;;;3.50;1.33;;;14.70;99.90;;;;;;7345273;32;20104;-59
2022/11/08 18:16:22;;;;;;;8.90;1.40;;;14.80;99.90;;;;;;7339252;32;20587;-60
2022/11/08 18:20:23;;;;;;;2.55;1.37;;;14.80;99.90;;;;;;7349381;32;20640;-61
2022/11/08 18:24:25;;;;;;;3.37;1.10;;;14.80;99.90;;;;;;7345302;32;20455;-60
2022/11/08 18:28:27;;;;;;;2.25;1.10;;;14.90;99.90;;;;;;7350188;32;20500;-60
2022/11/08 18:32:29;;;;;;;3.05;1.20;;;14.90;99.90;;;;;;7352414;32;20118;-59
2022/11/08 18:36:30;;;;;;;5.53;1.30;;;14.90;99.90;;;;;;7349875;32;20099;-59
2022/11/08 18:40:32;;;;;;;3.85;1.50;;;15.00;99.90;;;;;;7348209;32;20122;-61
2022/11/08 18:44:34;;;;;;;4.00;1.33;;;15.00;99.90;;;;;;7354233;32;21180;-61
2022/11/08 18:48:36;;;;;;;2.47;1.20;;;15.00;99.90;;;;;;7350553;32;20099;-59
2022/11/08 18:52:39;;;;;;;3.25;1.12;;;15.00;99.90;;;;;;7354314;32;20127;-59
2022/11/08 18:56:40;;;;;;;2.97;1.10;;;14.90;99.90;;;;;;7350636;32;20418;-59
2022/11/08 19:00:42;;;;;;;2.25;1.10;;;14.90;99.90;;;;;;7345997;32;20099;-59
2022/11/08 19:04:44;;;;;;;2.85;1.35;;;14.90;99.90;;;;;;7350691;32;20250;-59
2022/11/08 19:08:45;;;;;;;3.58;1.05;;;14.90;99.90;;;;;;7349584;32;20166;-59
2022/11/08 19:12:47;;;;;;;5.47;1.30;;;14.90;99.90;;;;;;7341936;32;20801;-59
2022/11/08 19:16:54;;;;;;;1.98;1.27;;;14.80;99.90;;;;;;7351117;32;20198;-61
2022/11/08 19:20:57;;;;;;;;;;;14.90;99.90;;;;;;7343590;32;20662;-61
2022/11/08 19:24:59;;;;;;;1.98;1.30;;;14.90;99.90;;;;;;7343671;32;20021;-61
2022/11/08 19:29:01;;;;;;;3.10;1.30;;;14.90;99.90;;;;;;7344884;32;20138;-62
2022/11/08 19:33:03;;;;;;;5.68;1.35;;;14.90;99.90;;;;;;7342802;32;20222;-60
2022/11/08 19:37:05;;;;;;;3.42;1.23;;;14.90;99.90;;;;;;7343251;32;20119;-60
2022/11/08 19:41:15;;;;;;;2.00;1.00;;;15.00;99.90;;;;;;7347448;32;20158;-59
2022/11/08 19:45:17;;;;;;;6.43;1.40;;;14.90;99.90;;;;;;7348406;32;20107;-59
2022/11/08 19:49:24;;;;;;;2.55;1.50;;;14.90;99.90;;;;;;7347098;32;20853;-61
2022/11/08 19:53:25;;;;;;;3.72;1.20;;;14.90;99.90;;;;;;7349594;32;20104;-61
2022/11/08 19:57:28;;;;;;;5.70;1.35;;;14.90;99.90;;;;;;7347207;32;20815;-60
2022/11/08 20:01:38;;;;;;;4.18;1.10;;;14.90;99.90;;;;;;7342194;32;20137;-61
2022/11/08 20:05:40;;;;;;;2.58;1.35;;;14.90;99.90;;;;;;7347188;32;20217;-60
2022/11/08 20:09:42;;;;;;;4.70;1.50;;;14.90;99.90;;;;;;7349562;32;20558;-60
2022/11/08 20:13:44;;;;;;;3.40;1.40;;;15.00;99.90;;;;;;7349307;32;20594;-60
2022/11/08 20:17:46;;;;;;;2.55;1.20;;;14.80;99.90;;;;;;7342864;32;20099;-61
2022/11/08 20:21:48;;;;;;;1.65;1.17;;;14.80;99.90;;;;;;7352137;32;20129;-60
2022/11/08 20:25:49;;;;;;;6.45;1.80;;;14.90;99.90;;;;;;7345371;32;20178;-58
2022/11/08 20:29:51;;;;;;;2.40;1.30;;;14.90;99.90;;;;;;7337733;32;20140;-59
2022/11/08 20:33:53;;;;;;;3.10;1.40;;;14.90;99.90;;;;;;7348364;32;20111;-60
2022/11/08 20:37:55;;;;;;;4.30;1.90;;;14.80;99.90;;;;;;7345025;32;20166;-60
2022/11/08 20:41:57;;;;;;;3.53;1.48;;;14.80;99.90;;;;;;7349595;32;20131;-60
2022/11/08 20:46:04;;;;;;;3.03;1.55;;;14.80;99.90;;;;;;7348288;32;20103;-61
2022/11/08 20:50:06;;;;;;;;;;;14.70;99.90;;;;;;7347110;32;20122;-61
2022/11/08 20:54:09;;;;;;;1.87;1.05;;;14.70;99.90;;;;;;7342659;32;21842;-60
2022/11/08 20:58:11;;;;;;;4.07;1.67;;;14.60;99.90;;;;;;7347076;32;20116;-62
2022/11/08 21:02:13;;;;;;;2.20;1.10;;;14.60;99.90;;;;;;7347594;32;20185;-60
2022/11/08 21:06:17;;;;;;;5.05;1.58;;;14.70;99.90;;;;;;7350879;32;20123;-60
2022/11/08 21:10:18;;;;;;;3.17;1.30;;;14.60;99.90;;;;;;7338582;32;20175;-59
2022/11/08 21:14:40;;;;;;;4.37;1.15;;;14.60;99.90;;;;;;7345385;32;20141;-60
2022/11/08 21:18:42;;;;;;;2.60;1.40;;;14.50;99.90;;;;;;7348071;32;20107;-60
2022/11/08 21:22:43;;;;;;;1.85;1.23;;;14.60;99.90;;;;;;7347175;32;20202;-60
2022/11/08 21:26:45;;;;;;;1.52;1.17;;;14.60;99.90;;;;;;7345285;32;20133;-61
2022/11/08 21:30:47;;;;;;;3.58;1.17;;;14.60;99.90;;;;;;7344859;32;20190;-60
2022/11/08 21:34:49;;;;;;;2.12;1.30;;;14.70;99.90;;;;;;7354487;32;20107;-60
2022/11/08 21:38:50;;;;;;;4.62;1.20;;;14.70;99.90;;;;;;7346669;32;20107;-60
2022/11/08 21:42:52;;;;;;;4.72;1.30;;;14.60;99.90;;;;;;7349518;32;20141;-59